Time;durP1;ratioP1;P1;durP2;ratioP2;P2;SDS_P1;SDS_P2;PMS_P1;PMS_P2;Temp;Humidity;BMP_temperature;BMP_pressure;BME280_temperature;BME280_humidity;BME280_pressure;Samples;Min_cycle;Max_cycle;Signal;HPM_P1;HPM_P2
2022/03/07 00:02:06;;;;;;;4.30;3.90;;;20.20;41.00;;;;;;4973664;28;20264;-69
2022/03/07 00:04:32;;;;;;;3.92;3.63;;;20.20;41.10;;;;;;4975070;28;20226;-70
2022/03/07 00:06:58;;;;;;;3.60;3.30;;;20.20;41.30;;;;;;4956312;28;20276;-69
2022/03/07 00:09:24;;;;;;;3.20;3.00;;;20.20;41.20;;;;;;4956263;28;20220;-69
2022/03/07 00:11:50;;;;;;;3.42;3.17;;;20.20;41.30;;;;;;4958885;28;20253;-69
2022/03/07 00:14:16;;;;;;;3.47;3.17;;;20.20;41.30;;;;;;4956363;28;20190;-69
2022/03/07 00:16:42;;;;;;;3.22;3.03;;;20.20;41.40;;;;;;4940164;28;20232;-69
2022/03/07 00:19:08;;;;;;;3.33;3.03;;;20.20;41.40;;;;;;4973429;28;20276;-69
2022/03/07 00:21:36;;;;;;;3.63;3.33;;;20.20;41.30;;;;;;4956103;28;20592;-69
2022/03/07 00:24:03;;;;;;;3.17;2.97;;;20.20;41.40;;;;;;4956011;28;20182;-68
2022/03/07 00:26:29;;;;;;;3.67;3.38;;;20.20;41.40;;;;;;4939917;28;20196;-68
2022/03/07 00:28:54;;;;;;;3.38;3.08;;;20.20;41.40;;;;;;4956208;28;20264;-70
2022/03/07 00:31:21;;;;;;;3.60;3.30;;;20.20;41.40;;;;;;4940066;28;20222;-69
2022/03/07 00:33:48;;;;;;;3.90;3.60;;;20.20;41.40;;;;;;4939865;28;20210;-69
2022/03/07 00:36:14;;;;;;;3.65;3.35;;;20.20;41.40;;;;;;4936813;28;20199;-69
2022/03/07 00:38:40;;;;;;;3.85;3.55;;;20.20;41.30;;;;;;4955799;28;20182;-70
2022/03/07 00:41:09;;;;;;;3.67;3.38;;;20.20;41.30;;;;;;4956111;28;20173;-69
2022/03/07 00:43:35;;;;;;;3.72;3.42;;;20.20;41.20;;;;;;4971995;28;20308;-69
2022/03/07 00:46:03;;;;;;;3.90;3.60;;;20.20;41.20;;;;;;4955590;28;20213;-69
2022/03/07 00:48:29;;;;;;;3.92;3.38;;;20.10;40.90;;;;;;4971789;28;20186;-69
2022/03/07 00:50:56;;;;;;;5.13;3.80;;;20.10;41.00;;;;;;4955826;28;20294;-69
2022/03/07 00:53:24;;;;;;;3.92;3.63;;;20.10;40.90;;;;;;4955387;28;20293;-69
2022/03/07 00:55:52;;;;;;;3.67;3.38;;;20.20;41.00;;;;;;4955630;28;20559;-69
2022/03/07 00:58:19;;;;;;;3.70;3.40;;;20.10;40.90;;;;;;4972872;28;20190;-69
2022/03/07 01:00:45;;;;;;;3.80;3.50;;;20.10;41.00;;;;;;4971452;28;20685;-70
2022/03/07 01:03:15;;;;;;;3.45;3.08;;;20.10;41.00;;;;;;4955238;28;20256;-69
2022/03/07 01:05:42;;;;;;;3.50;3.22;;;20.10;41.10;;;;;;4955019;28;20186;-69
2022/03/07 01:08:09;;;;;;;3.95;3.55;;;20.10;41.10;;;;;;4971342;28;20218;-70
2022/03/07 01:10:36;;;;;;;3.55;3.25;;;20.10;41.20;;;;;;4954772;28;20197;-69
2022/03/07 01:13:02;;;;;;;3.67;3.38;;;20.10;41.10;;;;;;4971244;28;20301;-68
2022/03/07 01:15:28;;;;;;;3.60;3.38;;;20.10;41.20;;;;;;4955004;28;20733;-69
2022/03/07 01:17:54;;;;;;;3.50;3.20;;;20.10;41.20;;;;;;4971187;28;20190;-69
2022/03/07 01:20:21;;;;;;;3.70;3.40;;;20.10;41.20;;;;;;4971090;28;20656;-69
2022/03/07 01:22:47;;;;;;;3.33;3.08;;;20.10;41.30;;;;;;4955043;28;20304;-68
2022/03/07 01:25:13;;;;;;;3.70;3.40;;;20.10;41.30;;;;;;4971020;28;20203;-67
2022/03/07 01:27:40;;;;;;;3.53;3.22;;;20.20;41.30;;;;;;4954878;28;20197;-69
2022/03/07 01:30:07;;;;;;;3.65;3.35;;;20.10;41.10;;;;;;4970929;28;20217;-69
2022/03/07 01:32:33;;;;;;;3.90;3.60;;;20.20;41.20;;;;;;4954987;28;20213;-69
2022/03/07 01:34:59;;;;;;;3.58;3.28;;;20.20;41.20;;;;;;4954762;28;20181;-69
2022/03/07 01:37:26;;;;;;;3.90;3.60;;;20.10;41.10;;;;;;4951327;28;20190;-69
2022/03/07 01:39:51;;;;;;;4.25;3.90;;;20.10;41.00;;;;;;4972095;28;20185;-69
2022/03/07 01:42:17;;;;;;;3.97;3.65;;;20.20;41.00;;;;;;4954527;28;20220;-69
2022/03/07 01:44:44;;;;;;;4.28;3.97;;;20.10;40.90;;;;;;4954734;28;20284;-69
2022/03/07 01:47:10;;;;;;;4.40;3.58;;;20.10;41.00;;;;;;4954421;28;20276;-69
2022/03/07 01:49:36;;;;;;;3.55;3.25;;;20.10;40.90;;;;;;4954733;28;20186;-70
2022/03/07 01:52:03;;;;;;;3.88;3.58;;;20.10;41.00;;;;;;4970813;28;20225;-69
2022/03/07 01:54:30;;;;;;;3.67;3.38;;;20.10;41.00;;;;;;4954790;28;20277;-70
2022/03/07 01:56:56;;;;;;;3.30;3.00;;;20.10;41.10;;;;;;4970480;28;20738;-69
2022/03/07 01:59:26;;;;;;;3.33;3.03;;;20.10;41.00;;;;;;4970560;28;20181;-69
2022/03/07 02:01:53;;;;;;;3.70;3.40;;;20.10;41.20;;;;;;4954412;28;20232;-70
2022/03/07 02:04:22;;;;;;;3.80;3.50;;;20.10;41.20;;;;;;4954374;28;20192;-69
2022/03/07 02:06:49;;;;;;;3.50;3.20;;;20.10;41.20;;;;;;4970634;28;20202;-70
2022/03/07 02:09:17;;;;;;;3.30;3.00;;;20.10;41.20;;;;;;4970402;28;20235;-69
2022/03/07 02:11:45;;;;;;;3.10;2.90;;;20.10;41.20;;;;;;4954357;28;20670;-69
2022/03/07 02:14:20;;;;;;;3.10;2.90;;;20.10;41.20;;;;;;4954424;28;20637;-69
2022/03/07 02:16:50;;;;;;;3.42;3.13;;;20.10;41.20;;;;;;4958347;28;20180;-69
2022/03/07 02:19:17;;;;;;;4.00;3.70;;;20.10;41.20;;;;;;4938478;28;20181;-69
2022/03/07 02:21:47;;;;;;;4.63;4.25;;;20.10;41.10;;;;;;4937943;28;20182;-69
2022/03/07 02:24:29;;;;;;;3.85;3.55;;;20.10;41.00;;;;;;4940629;28;20210;-70
2022/03/07 02:27:06;;;;;;;3.50;3.20;;;20.10;40.90;;;;;;4938679;28;20193;-68
2022/03/07 02:29:34;;;;;;;3.20;3.00;;;20.10;41.10;;;;;;4954027;28;20197;-69
2022/03/07 02:32:06;;;;;;;3.40;3.10;;;20.10;41.10;;;;;;4937100;28;20213;-69
2022/03/07 02:34:35;;;;;;;3.45;3.15;;;20.10;41.20;;;;;;4970120;28;20190;-69
2022/03/07 02:37:01;;;;;;;3.63;3.33;;;20.10;41.20;;;;;;4971366;28;20224;-69
2022/03/07 02:39:35;;;;;;;3.45;3.15;;;20.10;41.20;;;;;;4953815;28;20192;-69
2022/03/07 02:42:01;;;;;;;3.38;3.17;;;20.10;41.20;;;;;;4938149;28;20248;-68
2022/03/07 02:44:28;;;;;;;2.97;2.75;;;20.10;41.20;;;;;;4953945;28;20209;-70
2022/03/07 02:46:54;;;;;;;3.38;3.08;;;20.10;41.20;;;;;;4953914;28;20220;-69
2022/03/07 02:49:20;;;;;;;3.60;3.30;;;20.10;41.20;;;;;;4938005;28;20185;-69
2022/03/07 02:51:46;;;;;;;3.30;3.10;;;20.10;41.20;;;;;;4937763;28;20217;-68
2022/03/07 02:54:12;;;;;;;3.83;3.53;;;20.10;41.20;;;;;;4937654;28;20186;-70
2022/03/07 02:56:37;;;;;;;3.45;3.13;;;20.10;41.10;;;;;;4953786;28;20240;-69
2022/03/07 02:59:03;;;;;;;3.22;3.03;;;20.10;41.10;;;;;;4971159;28;20201;-69
2022/03/07 03:01:29;;;;;;;3.45;2.80;;;20.10;41.00;;;;;;4953976;28;20321;-69
2022/03/07 03:03:55;;;;;;;3.30;3.10;;;20.10;41.00;;;;;;4937752;28;20221;-70
2022/03/07 03:06:21;;;;;;;3.45;3.17;;;20.10;40.90;;;;;;4937560;28;20189;-69
2022/03/07 03:08:47;;;;;;;3.28;3.08;;;20.10;40.80;;;;;;4938009;28;20196;-69
2022/03/07 03:11:12;;;;;;;3.35;3.05;;;20.00;40.80;;;;;;4971150;28;20565;-69
2022/03/07 03:13:39;;;;;;;3.50;3.20;;;20.10;40.80;;;;;;4971090;28;20245;-69
2022/03/07 03:16:05;;;;;;;3.50;3.22;;;20.00;41.00;;;;;;4969735;28;20272;-69
2022/03/07 03:18:31;;;;;;;3.22;3.03;;;20.00;40.90;;;;;;4953967;28;20608;-68
2022/03/07 03:20:58;;;;;;;3.33;3.13;;;20.00;41.00;;;;;;4953829;28;20229;-69
2022/03/07 03:23:23;;;;;;;3.50;3.20;;;20.00;41.00;;;;;;4937571;28;20221;-69
2022/03/07 03:25:50;;;;;;;3.08;2.88;;;20.10;41.10;;;;;;4953370;28;20186;-69
2022/03/07 03:28:15;;;;;;;3.05;2.85;;;20.00;41.00;;;;;;4937780;28;20197;-69
2022/03/07 03:30:41;;;;;;;2.95;2.75;;;20.00;41.10;;;;;;4953070;28;20204;-69
2022/03/07 03:33:08;;;;;;;3.30;3.00;;;20.00;41.10;;;;;;4937495;28;20220;-69
2022/03/07 03:35:36;;;;;;;2.72;2.53;;;20.00;41.10;;;;;;4956742;28;20282;-69
2022/03/07 03:38:08;;;;;;;3.38;2.80;;;20.10;41.10;;;;;;4974278;28;20204;-69
2022/03/07 03:40:36;;;;;;;3.08;2.83;;;20.10;41.20;;;;;;4972637;28;20272;-69
2022/03/07 03:43:01;;;;;;;2.95;2.65;;;20.10;41.20;;;;;;4956540;28;20221;-68
2022/03/07 03:45:27;;;;;;;3.33;3.03;;;20.10;41.10;;;;;;4968599;28;20198;-67
2022/03/07 03:47:53;;;;;;;2.88;2.67;;;20.10;41.10;;;;;;4940876;28;20631;-69
2022/03/07 03:50:19;;;;;;;2.83;2.63;;;20.00;41.00;;;;;;4938362;28;20185;-69
2022/03/07 03:52:46;;;;;;;3.20;2.90;;;20.00;41.00;;;;;;4937148;29;20280;-69
2022/03/07 03:55:12;;;;;;;3.30;3.10;;;20.00;41.00;;;;;;4954677;29;20205;-69
2022/03/07 03:57:39;;;;;;;3.38;3.13;;;20.10;41.10;;;;;;4953294;28;20194;-69
2022/03/07 04:00:09;;;;;;;3.35;3.08;;;20.00;40.80;;;;;;4953210;29;20202;-69
2022/03/07 04:02:39;;;;;;;3.35;3.05;;;20.00;40.70;;;;;;4954633;28;20214;-69
2022/03/07 04:05:05;;;;;;;3.03;2.83;;;20.00;40.70;;;;;;4954577;28;20194;-69
2022/03/07 04:07:31;;;;;;;3.30;3.08;;;20.00;40.90;;;;;;4936973;29;20194;-69
2022/03/07 04:09:57;;;;;;;2.58;2.38;;;20.00;40.80;;;;;;4937290;29;20201;-69
2022/03/07 04:12:23;;;;;;;3.20;2.85;;;20.00;40.90;;;;;;4937074;29;20353;-69
2022/03/07 04:14:48;;;;;;;2.70;2.50;;;20.00;41.00;;;;;;4936966;28;20178;-69
2022/03/07 04:17:14;;;;;;;2.92;2.72;;;20.00;41.00;;;;;;4936829;29;20194;-69
2022/03/07 04:19:40;;;;;;;2.88;2.67;;;20.00;41.10;;;;;;4937162;29;20225;-69
2022/03/07 04:22:06;;;;;;;2.90;2.70;;;20.00;41.10;;;;;;4972430;28;20209;-69
2022/03/07 04:24:32;;;;;;;2.80;2.60;;;20.00;41.00;;;;;;4957614;28;20196;-68
2022/03/07 04:26:58;;;;;;;3.00;2.80;;;20.00;41.00;;;;;;4973099;28;20190;-69
2022/03/07 04:29:24;;;;;;;3.17;2.95;;;20.00;41.10;;;;;;4956014;28;20566;-70
2022/03/07 04:31:50;;;;;;;2.85;2.65;;;20.00;41.10;;;;;;4940027;28;20221;-69
2022/03/07 04:34:16;;;;;;;2.80;2.60;;;20.00;41.70;;;;;;4940538;28;20634;-68
2022/03/07 04:36:42;;;;;;;2.90;2.70;;;20.00;41.10;;;;;;4973218;28;20613;-69
2022/03/07 04:39:10;;;;;;;3.03;2.80;;;20.00;41.10;;;;;;4956012;28;20216;-69
2022/03/07 04:41:37;;;;;;;3.00;2.80;;;20.00;41.00;;;;;;4939983;28;20320;-69
2022/03/07 04:44:04;;;;;;;3.45;2.95;;;20.00;41.00;;;;;;4955670;28;20232;-69
2022/03/07 04:46:30;;;;;;;3.35;3.08;;;20.00;41.00;;;;;;4954794;28;20194;-69
2022/03/07 04:48:56;;;;;;;3.05;2.85;;;20.00;40.90;;;;;;4971927;28;20205;-69
2022/03/07 04:51:22;;;;;;;3.35;3.05;;;20.00;40.80;;;;;;4955429;28;20198;-70
2022/03/07 04:53:48;;;;;;;3.30;3.10;;;20.00;40.80;;;;;;4955576;28;20205;-69
2022/03/07 04:56:13;;;;;;;3.30;3.00;;;20.00;40.70;;;;;;4973139;28;20619;-69
2022/03/07 04:58:39;;;;;;;3.35;3.10;;;20.00;40.70;;;;;;4939523;28;20177;-69
2022/03/07 05:01:06;;;;;;;3.05;2.85;;;19.90;40.60;;;;;;4939710;28;20192;-69
2022/03/07 05:03:32;;;;;;;3.10;2.90;;;19.90;40.60;;;;;;4939283;28;20221;-68
2022/03/07 05:05:58;;;;;;;3.42;3.13;;;20.00;40.80;;;;;;4955248;28;20197;-69
2022/03/07 05:08:23;;;;;;;2.83;2.63;;;19.90;40.80;;;;;;4972471;28;20201;-69
2022/03/07 05:10:49;;;;;;;3.05;2.85;;;19.90;40.80;;;;;;4972578;28;20192;-69
2022/03/07 05:13:15;;;;;;;4.03;3.35;;;19.90;40.80;;;;;;4955004;28;20218;-70
2022/03/07 05:15:41;;;;;;;3.05;2.85;;;20.00;41.00;;;;;;4952829;28;20292;-67
2022/03/07 05:18:07;;;;;;;3.40;3.10;;;20.00;40.90;;;;;;4921531;29;20711;-69
2022/03/07 05:20:34;;;;;;;3.00;2.80;;;19.90;40.90;;;;;;4937516;29;20278;-69
2022/03/07 05:23:00;;;;;;;3.30;3.00;;;19.90;40.90;;;;;;4937341;29;20225;-69
2022/03/07 05:25:27;;;;;;;3.00;2.80;;;19.90;40.90;;;;;;4921604;29;20205;-69
2022/03/07 05:27:53;;;;;;;2.88;2.67;;;19.90;40.90;;;;;;4921313;29;20186;-69
2022/03/07 05:30:22;;;;;;;2.90;2.70;;;19.90;41.00;;;;;;4937224;29;20279;-68
2022/03/07 05:32:50;;;;;;;3.55;3.25;;;20.00;41.00;;;;;;4937141;29;20222;-68
2022/03/07 05:35:17;;;;;;;3.40;3.10;;;20.00;41.00;;;;;;4953931;28;20598;-68
2022/03/07 05:37:43;;;;;;;4.13;3.30;;;20.00;41.00;;;;;;4921038;29;20209;-69
2022/03/07 05:40:12;;;;;;;3.50;3.20;;;19.90;40.80;;;;;;4936927;29;20178;-69
2022/03/07 05:42:39;;;;;;;3.35;3.05;;;19.90;40.80;;;;;;4936914;29;20285;-69
2022/03/07 05:45:07;;;;;;;3.70;3.40;;;19.90;40.70;;;;;;4936764;29;20190;-69
2022/03/07 05:47:33;;;;;;;3.63;3.33;;;19.90;40.70;;;;;;4953910;29;20186;-68
2022/03/07 05:49:59;;;;;;;3.85;3.55;;;19.90;40.50;;;;;;4920894;29;20675;-69
2022/03/07 05:52:26;;;;;;;3.58;3.28;;;19.90;40.60;;;;;;4921090;29;20443;-69
2022/03/07 05:54:51;;;;;;;3.72;3.42;;;19.90;40.50;;;;;;4920757;29;20195;-68
2022/03/07 05:57:17;;;;;;;3.78;3.47;;;19.90;40.70;;;;;;4920316;29;20185;-68
2022/03/07 05:59:43;;;;;;;3.83;3.38;;;19.90;40.60;;;;;;4936690;29;20191;-69
2022/03/07 06:02:09;;;;;;;4.13;3.38;;;19.90;40.90;;;;;;4936460;29;20261;-69
2022/03/07 06:04:34;;;;;;;3.42;3.13;;;19.90;40.80;;;;;;4936418;29;20217;-68
2022/03/07 06:07:00;;;;;;;3.78;3.40;;;19.90;40.80;;;;;;4920817;29;20265;-68
2022/03/07 06:09:26;;;;;;;3.83;3.53;;;19.90;40.80;;;;;;4920736;29;20190;-69
2022/03/07 06:11:52;;;;;;;3.67;3.38;;;19.90;40.90;;;;;;4936510;29;20233;-68
2022/03/07 06:14:18;;;;;;;3.75;3.45;;;19.90;40.90;;;;;;4952832;29;20598;-69
2022/03/07 06:16:43;;;;;;;3.75;3.17;;;19.90;40.90;;;;;;4919031;29;20218;-69
2022/03/07 06:19:09;;;;;;;3.78;3.50;;;19.90;40.90;;;;;;4919161;29;20184;-69
2022/03/07 06:21:35;;;;;;;3.60;3.30;;;19.90;40.90;;;;;;4919276;29;20205;-68
2022/03/07 06:24:01;;;;;;;3.42;3.17;;;19.90;40.90;;;;;;4919317;29;20186;-68
2022/03/07 06:26:27;;;;;;;3.63;3.38;;;19.90;40.90;;;;;;4927604;28;20189;-69
2022/03/07 06:28:52;;;;;;;3.70;3.40;;;19.90;40.90;;;;;;4954176;28;20189;-69
2022/03/07 06:31:19;;;;;;;3.70;3.45;;;19.90;40.80;;;;;;4953839;28;20200;-69
2022/03/07 06:33:44;;;;;;;4.00;3.70;;;19.90;40.90;;;;;;4937819;28;20273;-68
2022/03/07 06:36:10;;;;;;;4.28;3.85;;;19.90;41.40;;;;;;4938232;28;20277;-69
2022/03/07 06:38:39;;;;;;;4.25;3.83;;;19.90;40.70;;;;;;4954133;28;20185;-69
2022/03/07 06:41:06;;;;;;;4.90;4.50;;;19.90;40.70;;;;;;4954070;28;20216;-69
2022/03/07 06:43:32;;;;;;;4.20;3.90;;;19.90;40.60;;;;;;4954026;28;20212;-68
2022/03/07 06:45:59;;;;;;;4.20;3.88;;;19.90;40.50;;;;;;4954024;28;20205;-69
2022/03/07 06:48:25;;;;;;;4.28;3.88;;;19.90;40.60;;;;;;4969891;28;20189;-69
2022/03/07 06:50:51;;;;;;;4.55;4.18;;;19.90;40.60;;;;;;4954126;28;20201;-69
2022/03/07 06:53:17;;;;;;;4.43;4.13;;;19.90;40.50;;;;;;4953780;28;20225;-68
2022/03/07 06:55:43;;;;;;;4.40;4.00;;;19.90;40.50;;;;;;4953721;28;20193;-68
2022/03/07 06:58:09;;;;;;;3.97;3.58;;;19.90;40.60;;;;;;4937784;28;20189;-69
2022/03/07 07:00:35;;;;;;;3.78;3.47;;;19.90;40.70;;;;;;4938088;28;20194;-69
2022/03/07 07:03:00;;;;;;;4.28;3.83;;;19.90;40.80;;;;;;4953479;28;20221;-69
2022/03/07 07:05:26;;;;;;;4.28;3.88;;;19.90;40.70;;;;;;4938013;28;20189;-69
2022/03/07 07:07:52;;;;;;;4.07;3.78;;;19.90;40.80;;;;;;4953649;28;20194;-69
2022/03/07 07:10:20;;;;;;;3.90;3.60;;;20.00;40.80;;;;;;4941330;28;20193;-69
2022/03/07 07:12:49;;;;;;;4.10;3.80;;;19.90;40.60;;;;;;4957361;28;20225;-68
2022/03/07 07:15:15;;;;;;;4.22;3.88;;;20.00;40.80;;;;;;4941319;28;20189;-69
2022/03/07 07:17:42;;;;;;;3.90;3.58;;;20.00;40.80;;;;;;4941203;28;20569;-69
2022/03/07 07:20:13;;;;;;;3.88;3.58;;;20.10;40.80;;;;;;4957569;28;20195;-69
2022/03/07 07:22:40;;;;;;;4.35;4.03;;;20.10;40.70;;;;;;4957159;28;20209;-69
2022/03/07 07:25:08;;;;;;;4.55;4.15;;;20.10;40.70;;;;;;4957207;28;20194;-69
2022/03/07 07:27:34;;;;;;;5.25;4.85;;;20.20;40.70;;;;;;4956933;28;20190;-69
2022/03/07 07:30:01;;;;;;;4.60;4.28;;;20.20;40.50;;;;;;4974569;28;20276;-69
2022/03/07 07:32:28;;;;;;;5.15;4.75;;;20.20;40.70;;;;;;4957129;28;20213;-69
2022/03/07 07:34:54;;;;;;;5.20;4.80;;;20.20;40.70;;;;;;4957179;28;20188;-69
2022/03/07 07:37:20;;;;;;;5.68;5.03;;;20.20;40.60;;;;;;4956890;28;20186;-69
2022/03/07 07:39:46;;;;;;;4.70;4.30;;;20.20;40.50;;;;;;4956006;28;20189;-68
2022/03/07 07:42:12;;;;;;;4.80;4.40;;;20.20;40.50;;;;;;4961100;28;20227;-69
2022/03/07 07:44:39;;;;;;;4.68;4.28;;;20.30;40.50;;;;;;4974255;28;20190;-69
2022/03/07 07:47:07;;;;;;;4.18;3.85;;;20.20;40.40;;;;;;4972979;28;20186;-69
2022/03/07 07:49:33;;;;;;;3.90;3.60;;;20.30;41.20;;;;;;4964572;28;20198;-69
2022/03/07 07:51:59;;;;;;;4.05;3.75;;;20.20;40.50;;;;;;4956792;28;20926;-69
2022/03/07 07:54:25;;;;;;;4.20;3.90;;;20.20;40.50;;;;;;4956480;28;20193;-69
2022/03/07 07:56:51;;;;;;;3.45;3.25;;;20.20;40.50;;;;;;4940655;28;20190;-69
2022/03/07 07:59:18;;;;;;;4.93;3.80;;;20.20;40.50;;;;;;4956738;28;20225;-68
2022/03/07 08:01:44;;;;;;;4.32;3.95;;;20.20;40.50;;;;;;4973857;28;20200;-69
2022/03/07 08:04:12;;;;;;;4.18;3.88;;;20.20;40.50;;;;;;4974065;28;20190;-67
2022/03/07 08:06:39;;;;;;;4.10;3.80;;;20.30;40.60;;;;;;4940483;28;20196;-69
2022/03/07 08:09:05;;;;;;;4.28;3.97;;;20.30;40.60;;;;;;4942146;28;20189;-69
2022/03/07 08:11:31;;;;;;;4.30;4.00;;;20.30;40.50;;;;;;4941979;28;20193;-68
2022/03/07 08:13:57;;;;;;;3.97;3.63;;;20.30;40.50;;;;;;4942109;28;20713;-68
2022/03/07 08:16:23;;;;;;;3.95;3.67;;;20.30;40.40;;;;;;4957920;28;20236;-69
2022/03/07 08:18:48;;;;;;;4.25;3.85;;;20.40;40.50;;;;;;4958070;28;20182;-69
2022/03/07 08:21:14;;;;;;;4.65;4.28;;;20.40;40.40;;;;;;4974071;28;20193;-69
2022/03/07 08:23:40;;;;;;;4.75;4.45;;;20.30;40.30;;;;;;4958089;28;20292;-68
2022/03/07 08:26:06;;;;;;;4.40;4.10;;;20.40;40.40;;;;;;4957557;28;20204;-69
2022/03/07 08:28:32;;;;;;;4.25;3.95;;;20.40;40.40;;;;;;4957897;28;20192;-68
2022/03/07 08:30:58;;;;;;;8.93;6.68;;;20.40;40.30;;;;;;4977503;28;20573;-69
2022/03/07 08:33:23;;;;;;;7.55;5.18;;;20.40;40.30;;;;;;4941519;28;20318;-68
2022/03/07 08:35:51;;;;;;;6.72;5.03;;;20.40;40.30;;;;;;4941627;28;20200;-68
2022/03/07 08:38:17;;;;;;;6.85;5.25;;;20.40;40.90;;;;;;4957886;28;20277;-68
2022/03/07 08:40:43;;;;;;;5.22;4.60;;;20.40;40.30;;;;;;4957507;28;20248;-69
2022/03/07 08:43:09;;;;;;;7.53;6.00;;;20.40;40.20;;;;;;4941479;28;20209;-69
2022/03/07 08:45:34;;;;;;;8.18;5.53;;;20.40;40.20;;;;;;4941496;28;20232;-68
2022/03/07 08:48:00;;;;;;;8.80;6.15;;;20.40;40.20;;;;;;4957388;28;20225;-69
2022/03/07 08:50:26;;;;;;;8.60;6.07;;;20.40;40.10;;;;;;4941417;28;20201;-69
2022/03/07 08:52:52;;;;;;;9.95;6.47;;;20.40;40.20;;;;;;4941351;28;20300;-67
2022/03/07 08:55:18;;;;;;;8.68;6.38;;;20.40;40.10;;;;;;4957340;28;20193;-69
2022/03/07 08:57:44;;;;;;;7.18;5.82;;;20.50;40.20;;;;;;4974327;28;20182;-69
2022/03/07 09:00:12;;;;;;;7.30;5.57;;;20.40;40.00;;;;;;4957189;28;20189;-69
2022/03/07 09:02:38;;;;;;;8.15;6.22;;;20.50;40.20;;;;;;4956598;28;20209;-69
2022/03/07 09:05:06;;;;;;;7.63;5.97;;;20.50;40.20;;;;;;4940181;28;20193;-68
2022/03/07 09:07:31;;;;;;;8.13;5.95;;;20.40;40.00;;;;;;4973361;28;20193;-68
2022/03/07 09:09:58;;;;;;;6.40;5.43;;;20.50;40.20;;;;;;4940272;28;20189;-69
2022/03/07 09:12:27;;;;;;;7.25;5.85;;;20.50;40.10;;;;;;4956019;28;20257;-69
2022/03/07 09:15:06;;;;;;;8.73;5.97;;;20.50;40.10;;;;;;4956473;28;20272;-69
2022/03/07 09:17:32;;;;;;;7.72;6.13;;;20.50;40.00;;;;;;4955971;28;20181;-68
2022/03/07 09:19:58;;;;;;;6.93;5.82;;;20.50;40.10;;;;;;4973298;28;20195;-69
2022/03/07 09:22:27;;;;;;;7.00;5.88;;;20.50;40.00;;;;;;4956040;28;20225;-69
2022/03/07 09:24:54;;;;;;;7.80;6.10;;;20.50;40.10;;;;;;4940088;28;20186;-69
2022/03/07 09:27:20;;;;;;;6.63;5.93;;;20.50;40.00;;;;;;4939735;28;20197;-69
2022/03/07 09:29:47;;;;;;;7.40;6.03;;;20.40;40.00;;;;;;4955767;28;20276;-68
2022/03/07 09:32:14;;;;;;;6.15;5.43;;;20.50;40.10;;;;;;4939690;28;20272;-69
2022/03/07 09:34:40;;;;;;;5.97;5.38;;;20.50;39.90;;;;;;4939880;28;20182;-69
2022/03/07 09:37:06;;;;;;;6.35;5.40;;;20.40;39.90;;;;;;4939645;28;20193;-69
2022/03/07 09:39:35;;;;;;;6.63;5.93;;;20.50;40.00;;;;;;4956156;28;20213;-69
2022/03/07 09:42:02;;;;;;;6.05;5.35;;;20.50;40.00;;;;;;4939103;28;20209;-69
2022/03/07 09:44:28;;;;;;;6.45;5.30;;;20.50;40.00;;;;;;4955387;28;20261;-69
2022/03/07 09:46:59;;;;;;;6.88;5.40;;;20.50;39.90;;;;;;4939476;28;20189;-69
2022/03/07 09:49:26;;;;;;;6.18;5.57;;;20.50;39.90;;;;;;4971725;28;20228;-69
2022/03/07 09:51:53;;;;;;;5.95;5.10;;;20.50;40.00;;;;;;4973012;28;20205;-69
2022/03/07 09:54:19;;;;;;;5.65;5.07;;;20.40;39.90;;;;;;4972946;28;20186;-69
2022/03/07 09:56:45;;;;;;;5.57;4.60;;;20.50;40.00;;;;;;4955147;28;20197;-68
2022/03/07 09:59:11;;;;;;;4.88;4.38;;;20.40;39.90;;;;;;4939497;28;20182;-69
2022/03/07 10:01:37;;;;;;;5.90;5.03;;;20.40;39.90;;;;;;4918962;28;1059366;-69
2022/03/07 10:04:10;;;;;;;5.00;4.40;;;20.40;39.90;;;;;;4955932;28;20185;-69
2022/03/07 10:06:36;;;;;;;5.93;5.32;;;20.40;40.00;;;;;;4954238;28;20188;-69
2022/03/07 10:09:04;;;;;;;6.45;5.03;;;20.40;39.90;;;;;;4966468;28;20240;-68
2022/03/07 10:11:32;;;;;;;5.40;4.90;;;20.40;40.00;;;;;;4955680;28;20186;-67
2022/03/07 10:14:04;;;;;;;5.65;5.13;;;20.40;39.70;;;;;;4974058;28;20186;-68
2022/03/07 10:16:42;;;;;;;5.72;5.13;;;20.40;40.00;;;;;;4973510;28;20190;-68
2022/03/07 10:19:12;;;;;;;5.72;5.22;;;20.40;40.00;;;;;;4972770;28;20185;-69
2022/03/07 10:21:48;;;;;;;5.07;4.55;;;20.40;39.90;;;;;;4956083;28;20194;-68
2022/03/07 10:24:14;;;;;;;6.38;5.15;;;20.40;40.00;;;;;;4972420;28;20185;-68
2022/03/07 10:26:40;;;;;;;5.20;4.70;;;20.40;40.00;;;;;;4956028;28;20273;-69
2022/03/07 10:29:07;;;;;;;5.90;4.78;;;20.40;40.00;;;;;;4956543;28;20284;-68
2022/03/07 10:31:33;;;;;;;5.60;4.38;;;20.40;39.90;;;;;;4956083;28;20185;-68
2022/03/07 10:34:09;;;;;;;5.10;4.60;;;20.40;40.00;;;;;;4957013;28;20186;-69
2022/03/07 10:36:40;;;;;;;5.20;4.70;;;20.40;40.00;;;;;;4955995;28;20181;-68
2022/03/07 10:39:15;;;;;;;4.90;4.40;;;20.40;40.00;;;;;;4956407;28;20297;-68
2022/03/07 10:41:46;;;;;;;5.00;4.55;;;20.40;39.90;;;;;;4972279;28;20200;-68
2022/03/07 10:44:23;;;;;;;5.78;5.00;;;20.40;40.00;;;;;;4958074;28;20268;-68
2022/03/07 10:46:49;;;;;;;4.80;4.40;;;20.40;40.00;;;;;;4959963;28;20181;-69
2022/03/07 10:49:17;;;;;;;5.25;4.75;;;20.40;40.10;;;;;;4960203;28;20212;-68
2022/03/07 10:51:54;;;;;;;5.15;4.45;;;20.40;40.00;;;;;;4960304;28;20178;-68
2022/03/07 10:54:21;;;;;;;4.88;4.47;;;20.40;40.00;;;;;;4976032;28;20185;-68
2022/03/07 10:56:55;;;;;;;5.18;4.68;;;20.40;39.90;;;;;;4959836;28;20224;-68
2022/03/07 10:59:31;;;;;;;4.63;4.22;;;20.40;40.00;;;;;;4977259;28;20256;-68
2022/03/07 11:02:19;;;;;;;4.20;3.90;;;20.40;40.10;;;;;;4959640;28;20240;-68
2022/03/07 11:04:50;;;;;;;4.32;4.03;;;20.40;40.00;;;;;;4959208;28;20193;-68
2022/03/07 11:07:17;;;;;;;5.20;4.70;;;20.40;39.90;;;;;;4959856;28;20181;-67
2022/03/07 11:09:43;;;;;;;4.97;4.47;;;20.40;39.80;;;;;;4977141;28;20181;-68
2022/03/07 11:12:14;;;;;;;5.93;5.43;;;20.40;40.10;;;;;;4959482;28;20595;-68
2022/03/07 11:14:42;;;;;;;5.13;4.63;;;20.40;40.00;;;;;;4959651;28;20178;-68
2022/03/07 11:17:14;;;;;;;5.13;4.72;;;20.30;39.70;;;;;;4975795;28;20214;-68
2022/03/07 11:19:42;;;;;;;4.70;4.25;;;20.30;40.00;;;;;;4959847;28;20185;-68
2022/03/07 11:22:10;;;;;;;4.75;4.35;;;20.40;40.00;;;;;;4976790;28;20205;-69
2022/03/07 11:24:37;;;;;;;4.38;4.03;;;20.40;39.90;;;;;;4959412;28;20193;-68
2022/03/07 11:27:04;;;;;;;4.32;3.90;;;20.40;40.00;;;;;;4959140;28;20192;-68
2022/03/07 11:29:37;;;;;;;4.70;4.30;;;20.30;40.00;;;;;;4959367;28;20687;-67
2022/03/07 11:32:10;;;;;;;4.72;4.32;;;20.30;40.00;;;;;;4959226;28;20228;-68
2022/03/07 11:34:38;;;;;;;4.43;4.03;;;20.40;40.00;;;;;;4959357;28;20182;-68
2022/03/07 11:37:19;;;;;;;4.78;4.28;;;20.40;40.00;;;;;;4976466;28;20170;-68
2022/03/07 11:39:45;;;;;;;3.65;3.40;;;20.40;40.00;;;;;;4959366;28;20174;-68
2022/03/07 11:42:16;;;;;;;4.22;3.92;;;20.40;40.00;;;;;;4959096;28;20205;-68
2022/03/07 11:44:44;;;;;;;4.97;4.47;;;20.40;40.10;;;;;;4959376;28;20196;-68
2022/03/07 11:47:20;;;;;;;5.30;4.80;;;20.40;40.00;;;;;;4958999;28;20197;-68
2022/03/07 11:49:59;;;;;;;4.80;4.40;;;20.40;39.90;;;;;;4958281;28;20202;-68
2022/03/07 11:52:25;;;;;;;4.97;4.53;;;20.30;40.00;;;;;;4972087;28;20221;-68
2022/03/07 11:54:58;;;;;;;4.72;4.32;;;20.30;39.80;;;;;;4939589;29;20186;-68
2022/03/07 11:57:33;;;;;;;4.40;3.75;;;20.30;39.90;;;;;;4939895;29;20183;-69
2022/03/07 12:00:26;;;;;;;5.13;4.63;;;20.30;39.90;;;;;;4956807;28;20186;-68
2022/03/07 12:03:08;;;;;;;4.13;3.83;;;20.30;39.90;;;;;;4935655;29;20258;-69
2022/03/07 12:05:34;;;;;;;5.20;4.80;;;20.40;40.10;;;;;;4939341;29;20225;-68
2022/03/07 12:08:18;;;;;;;5.07;4.68;;;20.40;40.10;;;;;;4956550;29;20206;-68
2022/03/07 12:10:58;;;;;;;5.35;4.45;;;20.30;39.90;;;;;;4955769;28;20213;-68
2022/03/07 12:13:24;;;;;;;4.65;4.25;;;20.30;39.80;;;;;;4955312;29;20226;-68
2022/03/07 12:15:53;;;;;;;4.40;4.10;;;20.30;39.90;;;;;;4955475;29;20190;-68
2022/03/07 12:18:20;;;;;;;7.45;4.25;;;20.40;40.00;;;;;;4939386;29;20183;-68
2022/03/07 12:20:58;;;;;;;4.43;3.80;;;20.40;40.20;;;;;;4955365;29;20662;-67
2022/03/07 12:23:28;;;;;;;6.35;4.00;;;20.40;41.30;;;;;;4939169;29;20242;-68
2022/03/07 12:26:06;;;;;;;5.65;4.05;;;20.40;41.10;;;;;;4939562;29;20186;-68
2022/03/07 12:28:35;;;;;;;4.38;3.75;;;20.40;41.00;;;;;;4955278;29;20194;-68
2022/03/07 12:31:04;;;;;;;8.50;4.20;;;20.40;40.80;;;;;;4955047;29;20195;-68
2022/03/07 12:33:31;;;;;;;9.07;4.70;;;20.40;40.90;;;;;;4967244;28;20232;-69
2022/03/07 12:36:10;;;;;;;6.57;4.43;;;20.40;40.70;;;;;;4947283;28;20190;-68
2022/03/07 12:38:51;;;;;;;4.85;4.45;;;20.40;40.70;;;;;;4975552;28;20189;-68
2022/03/07 12:41:36;;;;;;;5.40;4.90;;;20.40;40.70;;;;;;4958019;28;20193;-68
2022/03/07 12:44:04;;;;;;;7.25;4.30;;;20.40;40.60;;;;;;4958525;28;20186;-68
2022/03/07 12:46:30;;;;;;;5.38;4.30;;;20.30;40.50;;;;;;4974151;28;20197;-68
2022/03/07 12:48:58;;;;;;;6.28;4.28;;;20.30;40.50;;;;;;4958321;28;20216;-68
2022/03/07 12:51:25;;;;;;;4.38;3.97;;;20.40;40.60;;;;;;4975282;28;20174;-68